createdAt,value
2019-04-06T00:01:47.791Z,45.35
2019-04-06T00:04:16.242Z,41.98
2019-04-06T00:06:44.730Z,49.13
2019-04-06T00:09:13.185Z,47.67
2019-04-06T00:11:41.619Z,44.73
2019-04-06T00:14:10.147Z,40.58
2019-04-06T00:16:38.570Z,45.10
2019-04-06T00:19:07.131Z,45.48
2019-04-06T00:21:35.542Z,46.55
2019-04-06T00:24:04.059Z,49.30
2019-04-06T00:26:32.506Z,44.20
2019-04-06T00:29:01.024Z,41.13
2019-04-06T00:31:45.816Z,48.13
2019-04-06T00:34:16.004Z,44.93
2019-04-06T00:36:44.459Z,41.42
2019-04-06T00:39:12.887Z,36.70
2019-04-06T00:41:41.335Z,37.95
2019-04-06T00:44:09.918Z,43.28
2019-04-06T00:46:38.380Z,38.83
2019-04-06T00:49:06.807Z,41.08
2019-04-06T00:51:35.337Z,46.05
2019-04-06T00:54:03.759Z,44.38
2019-04-06T00:56:32.203Z,52.03
2019-04-06T00:59:02.238Z,42.73
2019-04-06T01:01:30.678Z,51.13
2019-04-06T01:03:59.101Z,54.75
2019-04-06T01:06:27.555Z,53.25
2019-04-06T01:08:56.055Z,54.77
2019-04-06T01:11:24.502Z,51.40
2019-04-06T01:13:52.929Z,51.15
2019-04-06T01:16:21.382Z,53.50
2019-04-06T01:18:50.082Z,53.28
2019-04-06T01:21:18.519Z,49.63
2019-04-06T01:23:47.070Z,41.85
2019-04-06T01:26:15.589Z,49.25
2019-04-06T01:28:44.041Z,52.05
2019-04-06T01:31:12.459Z,40.08
2019-04-06T01:33:40.907Z,46.15
2019-04-06T01:36:10.947Z,41.55
2019-04-06T01:38:39.572Z,43.30
2019-04-06T01:41:08.159Z,52.70
2019-04-06T01:43:36.689Z,51.05
2019-04-06T01:46:05.298Z,52.30
2019-04-06T01:48:33.753Z,40.92
2019-04-06T01:51:02.183Z,44.15
2019-04-06T01:53:30.626Z,41.18
2019-04-06T01:56:00.730Z,38.50
2019-04-06T01:58:29.334Z,37.93
2019-04-06T02:01:02.132Z,43.08
2019-04-06T02:03:30.569Z,48.63
2019-04-06T02:05:58.995Z,50.55
2019-04-06T02:08:27.438Z,55.15
2019-04-06T02:10:55.931Z,39.90
2019-04-06T02:13:25.911Z,41.50
2019-04-06T02:15:54.330Z,40.60
2019-04-06T02:18:22.783Z,48.00
2019-04-06T02:20:51.321Z,41.37
2019-04-06T02:23:19.791Z,42.50
2019-04-06T02:25:49.747Z,40.05
2019-04-06T02:28:19.866Z,40.08
2019-04-06T02:31:06.235Z,42.00
2019-04-06T02:33:39.491Z,41.13
2019-04-06T02:36:18.318Z,44.03
2019-04-06T02:38:48.502Z,42.62
2019-04-06T02:41:18.999Z,32.28
2019-04-06T02:43:49.088Z,40.17
2019-04-06T02:46:17.506Z,38.10
2019-04-06T02:48:45.955Z,41.48
2019-04-06T02:51:14.374Z,43.23
2019-04-06T02:53:42.794Z,39.48
2019-04-06T02:56:11.561Z,40.43
2019-04-06T02:58:40.390Z,44.13
2019-04-06T03:01:08.900Z,35.98
2019-04-06T03:03:37.318Z,45.35
2019-04-06T03:06:06.015Z,46.90
2019-04-06T03:08:34.512Z,42.78
2019-04-06T03:11:03.092Z,42.65
2019-04-06T03:13:31.526Z,50.83
2019-04-06T03:16:01.667Z,40.10
2019-04-06T03:18:30.356Z,39.00
2019-04-06T03:20:58.937Z,46.05
2019-04-06T03:23:27.356Z,38.48
2019-04-06T03:25:55.803Z,41.55
2019-04-06T03:28:24.357Z,40.55
2019-04-06T03:30:52.851Z,36.60
2019-04-06T03:33:21.352Z,42.67
2019-04-06T03:35:51.239Z,37.08
2019-04-06T03:38:20.024Z,50.38
2019-04-06T03:40:48.471Z,37.78
2019-04-06T03:43:16.896Z,43.15
2019-04-06T03:45:46.915Z,46.75
2019-04-06T03:48:17.045Z,39.10
2019-04-06T03:50:45.502Z,50.35
2019-04-06T03:53:14.111Z,51.68
2019-04-06T03:55:42.589Z,48.15
2019-04-06T03:58:11.107Z,48.08
2019-04-06T04:00:39.537Z,47.30
2019-04-06T04:03:08.095Z,53.98
2019-04-06T04:05:36.644Z,41.70
2019-04-06T04:08:05.088Z,51.28
2019-04-06T04:10:36.297Z,47.38
2019-04-06T04:13:05.622Z,51.28
2019-04-06T04:15:34.489Z,45.85
2019-04-06T04:18:03.138Z,49.50
2019-04-06T04:20:33.123Z,46.90
2019-04-06T04:23:01.690Z,40.90
2019-04-06T04:25:30.245Z,38.13
2019-04-06T04:27:59.015Z,41.53
2019-04-06T04:30:32.990Z,43.08
2019-04-06T04:32:57.677Z,43.90
2019-04-06T04:35:26.163Z,43.60
2019-04-06T04:37:54.616Z,42.62
2019-04-06T04:40:23.107Z,41.13
2019-04-06T04:42:51.737Z,41.50
2019-04-06T04:45:20.305Z,41.90
2019-04-06T04:47:50.334Z,43.17
2019-04-06T04:50:19.112Z,45.40
2019-04-06T04:52:47.704Z,46.10
2019-04-06T04:55:16.158Z,43.33
2019-04-06T04:57:46.191Z,38.67
2019-04-06T05:00:14.980Z,48.65
2019-04-06T05:02:43.561Z,49.10
2019-04-06T05:05:12.159Z,39.53
2019-04-06T05:07:40.582Z,49.38
2019-04-06T05:10:09.518Z,42.20
2019-04-06T05:12:37.933Z,53.58
2019-04-06T05:15:09.663Z,44.83
2019-04-06T05:17:39.638Z,53.02
2019-04-06T05:20:09.122Z,52.50
2019-04-06T05:22:37.610Z,44.90
2019-04-06T05:25:07.201Z,41.65
2019-04-06T05:27:35.921Z,46.68
2019-04-06T05:30:06.743Z,51.83
2019-04-06T05:32:35.461Z,40.08
2019-04-06T05:35:05.456Z,45.12
2019-04-06T05:37:33.876Z,37.70
2019-04-06T05:40:02.323Z,39.50
2019-04-06T05:42:30.825Z,42.43
2019-04-06T05:44:59.321Z,40.78
2019-04-06T05:47:27.926Z,43.65
2019-04-06T05:49:56.376Z,44.55
2019-04-06T05:52:24.826Z,47.73
2019-04-06T05:54:56.427Z,43.00
2019-04-06T05:57:24.995Z,42.55
2019-04-06T05:59:53.590Z,41.48
2019-04-06T06:02:22.340Z,43.02
2019-04-06T06:04:50.875Z,40.83
2019-04-06T06:07:19.321Z,39.33
2019-04-06T06:09:47.760Z,42.75
2019-04-06T06:12:16.243Z,46.10
2019-04-06T06:14:44.651Z,45.35
2019-04-06T06:17:14.384Z,37.65
2019-04-06T06:19:43.033Z,36.53
2019-04-06T06:22:11.556Z,46.50
2019-04-06T06:24:40.072Z,41.37
2019-04-06T06:27:08.509Z,37.75
2019-04-06T06:29:36.939Z,42.20
2019-04-06T06:32:05.546Z,40.40
2019-04-06T06:34:33.981Z,41.90
2019-04-06T06:37:02.497Z,43.83
2019-04-06T06:39:31.201Z,43.48
2019-04-06T06:41:59.685Z,43.15
2019-04-06T06:44:28.166Z,44.53
2019-04-06T06:46:56.734Z,39.75
2019-04-06T06:49:25.266Z,44.53
2019-04-06T06:51:53.758Z,45.10
2019-04-06T06:54:24.166Z,51.33
2019-04-06T06:56:52.672Z,46.55
2019-04-06T06:59:21.118Z,46.70
2019-04-06T07:01:49.587Z,41.88
2019-04-06T07:04:18.137Z,41.83
2019-04-06T07:06:46.751Z,42.15
2019-04-06T07:09:15.276Z,43.58
2019-04-06T07:11:43.719Z,42.58
2019-04-06T07:14:12.287Z,48.60
2019-04-06T07:16:40.746Z,48.98
2019-04-06T07:19:09.217Z,51.30
2019-04-06T07:21:37.789Z,44.98
2019-04-06T07:24:06.358Z,44.30
2019-04-06T07:26:34.862Z,48.78
2019-04-06T07:29:03.334Z,54.63
2019-04-06T07:31:31.818Z,46.15
2019-04-06T07:34:02.024Z,48.28
2019-04-06T07:36:30.614Z,49.53
2019-04-06T07:38:59.399Z,44.95
2019-04-06T07:41:27.872Z,50.83
2019-04-06T07:43:56.297Z,50.03
2019-04-06T07:46:24.837Z,51.23
2019-04-06T07:48:53.306Z,47.73
2019-04-06T07:51:21.784Z,52.67
2019-04-06T07:53:50.341Z,51.37
2019-04-06T07:56:20.621Z,64.95
2019-04-06T07:58:50.048Z,56.63
2019-04-06T08:01:19.105Z,52.43
2019-04-06T08:03:47.681Z,47.80
2019-04-06T08:06:16.209Z,56.73
2019-04-06T08:08:44.652Z,55.65
2019-04-06T08:11:13.116Z,45.95
2019-04-06T08:13:41.704Z,55.15
2019-04-06T08:16:10.253Z,56.20
2019-04-06T08:18:38.697Z,69.90
2019-04-06T08:21:07.143Z,61.13
2019-04-06T08:23:35.568Z,61.92
2019-04-06T08:26:04.101Z,61.02
2019-04-06T08:28:32.526Z,65.32
2019-04-06T08:31:01.034Z,64.12
2019-04-06T08:33:29.650Z,65.55
2019-04-06T08:35:58.240Z,60.85
2019-04-06T08:38:26.674Z,57.78
2019-04-06T08:40:55.140Z,58.02
2019-04-06T08:43:23.620Z,55.95
2019-04-06T08:45:52.289Z,51.98
2019-04-06T08:48:20.788Z,52.25
2019-04-06T08:50:49.236Z,50.75
2019-04-06T08:53:17.687Z,49.65
2019-04-06T08:55:46.135Z,46.28
2019-04-06T08:58:14.591Z,39.08
2019-04-06T09:00:43.102Z,38.97
2019-04-06T09:03:11.558Z,40.80
2019-04-06T09:05:40.048Z,38.70
2019-04-06T09:08:08.499Z,35.50
2019-04-06T09:10:36.922Z,31.03
2019-04-06T09:13:05.446Z,32.70
2019-04-06T09:15:33.891Z,33.37
2019-04-06T09:18:02.353Z,32.67
2019-04-06T09:20:30.777Z,25.17
2019-04-06T09:23:00.849Z,27.00
2019-04-06T09:25:29.285Z,23.33
2019-04-06T09:27:57.825Z,20.90
2019-04-06T09:30:26.335Z,26.17
2019-04-06T09:32:54.798Z,19.00
2019-04-06T09:35:23.535Z,24.47
2019-04-06T09:37:52.069Z,22.80
2019-04-06T09:40:20.510Z,20.50
2019-04-06T09:42:48.951Z,20.13
2019-04-06T09:45:28.487Z,21.57
2019-04-06T09:47:58.610Z,22.67
2019-04-06T09:50:28.832Z,23.03
2019-04-06T09:53:05.103Z,22.50
2019-04-06T09:55:38.316Z,29.27
2019-04-06T09:58:08.438Z,16.80
2019-04-06T10:00:41.483Z,19.47
2019-04-06T10:03:26.822Z,21.40
2019-04-06T10:05:59.746Z,20.20
2019-04-06T10:08:35.972Z,17.93
2019-04-06T10:11:08.994Z,17.43
2019-04-06T10:13:53.832Z,15.47
2019-04-06T10:16:32.673Z,21.30
2019-04-06T10:19:08.298Z,20.47
2019-04-06T10:21:54.906Z,22.43
2019-04-06T10:24:39.743Z,20.70
2019-04-06T10:27:15.602Z,22.90
2019-04-06T10:30:03.779Z,20.93
2019-04-06T10:32:33.881Z,20.47
2019-04-06T10:35:04.059Z,20.10
2019-04-06T10:37:39.829Z,20.83
2019-04-06T10:40:26.421Z,22.27
2019-04-06T10:42:56.510Z,24.27
2019-04-06T10:45:44.939Z,24.63
2019-04-06T10:48:24.349Z,19.37
2019-04-06T10:51:07.121Z,22.60
2019-04-06T10:53:37.454Z,22.73
2019-04-06T10:56:07.544Z,22.13
2019-04-06T10:58:43.672Z,26.67
2019-04-06T11:01:13.917Z,21.67
2019-04-06T11:03:49.617Z,22.33
2019-04-06T11:06:19.808Z,20.20
2019-04-06T11:09:04.975Z,24.27
2019-04-06T11:11:44.192Z,21.80
2019-04-06T11:14:17.127Z,22.10
2019-04-06T11:16:48.285Z,20.13
2019-04-06T11:19:34.306Z,22.60
2019-04-06T11:22:20.898Z,22.73
2019-04-06T11:25:06.009Z,18.83
2019-04-06T11:27:48.264Z,17.67
2019-04-06T11:30:35.426Z,15.37
2019-04-06T11:33:14.603Z,19.43
2019-04-06T11:35:47.482Z,15.80
2019-04-06T11:38:20.533Z,16.03
2019-04-06T11:40:50.682Z,19.70
2019-04-06T11:43:20.774Z,18.97
2019-04-06T11:45:54.145Z,21.40
2019-04-06T11:48:24.821Z,18.20
2019-04-06T11:51:11.231Z,16.90
2019-04-06T11:53:56.382Z,18.27
2019-04-06T11:56:35.554Z,20.00
2019-04-06T11:59:05.723Z,19.57
2019-04-06T12:01:50.916Z,17.50
2019-04-06T12:04:21.092Z,19.00
2019-04-06T12:06:56.931Z,25.60
2019-04-06T12:09:27.257Z,19.43
2019-04-06T12:12:03.948Z,19.30
2019-04-06T12:14:39.868Z,18.70
2019-04-06T12:17:13.252Z,18.90
2019-04-06T12:19:59.794Z,18.37
2019-04-06T12:22:35.909Z,17.60
2019-04-06T12:25:07.951Z,18.10
2019-04-06T12:27:56.501Z,20.40
2019-04-06T12:30:38.226Z,16.23
2019-04-06T12:33:25.459Z,15.07
2019-04-06T12:35:55.580Z,15.73
2019-04-06T12:38:34.599Z,16.53
2019-04-06T12:41:20.936Z,13.37
2019-04-06T12:44:07.847Z,18.30
2019-04-06T12:46:44.672Z,14.50
2019-04-06T12:49:14.754Z,15.60
2019-04-06T12:52:00.958Z,17.80
2019-04-06T12:54:37.088Z,15.83
2019-04-06T12:57:09.959Z,20.10
2019-04-06T12:59:40.122Z,17.63
2019-04-06T13:02:19.108Z,20.00
2019-04-06T13:04:55.055Z,17.07
2019-04-06T13:07:25.160Z,14.30
2019-04-06T13:09:58.014Z,15.40
2019-04-06T13:12:37.152Z,16.53
2019-04-06T13:15:17.581Z,16.57
2019-04-06T13:17:59.677Z,15.53
2019-04-06T13:20:30.061Z,18.40
2019-04-06T13:23:16.365Z,15.10
2019-04-06T13:25:46.445Z,14.17
2019-04-06T13:28:35.185Z,16.93
2019-04-06T13:31:05.570Z,14.20
2019-04-06T13:33:35.671Z,15.33
2019-04-06T13:36:05.927Z,14.57
2019-04-06T13:38:44.733Z,14.20
2019-04-06T13:41:23.568Z,19.03
2019-04-06T13:44:02.450Z,12.67
2019-04-06T13:46:44.433Z,21.13
2019-04-06T13:49:23.778Z,15.73
2019-04-06T13:52:02.925Z,16.20
2019-04-06T13:54:41.781Z,14.53
2019-04-06T13:57:24.125Z,14.60
2019-04-06T14:00:00.157Z,13.90
2019-04-06T14:02:30.300Z,13.60
2019-04-06T14:05:00.460Z,15.17
2019-04-06T14:07:33.509Z,14.47
2019-04-06T14:10:06.411Z,16.10
2019-04-06T14:12:44.995Z,15.80
2019-04-06T14:15:21.053Z,19.20
2019-04-06T14:18:07.406Z,15.73
2019-04-06T14:20:53.777Z,18.50
2019-04-06T14:23:29.986Z,12.90
2019-04-06T14:26:00.112Z,12.47
2019-04-06T14:28:46.414Z,15.93
2019-04-06T14:31:27.280Z,17.23
2019-04-06T14:34:07.471Z,19.03
2019-04-06T14:36:52.794Z,13.63
2019-04-06T14:39:22.932Z,14.40
2019-04-06T14:41:58.831Z,13.87
2019-04-06T14:44:37.908Z,13.67
2019-04-06T14:47:10.924Z,14.37
2019-04-06T14:49:56.415Z,16.37
2019-04-06T14:52:35.522Z,16.07
2019-04-06T14:55:15.166Z,13.10
2019-04-06T14:58:03.704Z,17.30
2019-04-06T15:00:36.818Z,18.83
2019-04-06T15:03:23.388Z,13.67
2019-04-06T15:05:53.483Z,18.03
2019-04-06T15:08:23.553Z,13.90
2019-04-06T15:11:10.364Z,13.60
2019-04-06T15:13:40.755Z,15.90
2019-04-06T15:16:25.981Z,14.63
2019-04-06T15:18:59.158Z,13.47
2019-04-06T15:21:32.315Z,13.87
2019-04-06T15:24:05.384Z,13.97
2019-04-06T15:26:35.498Z,15.70
2019-04-06T15:29:22.263Z,15.20
2019-04-06T15:32:01.970Z,14.23
2019-04-06T15:34:48.280Z,16.73
2019-04-06T15:37:34.874Z,14.30
2019-04-06T15:40:22.050Z,15.77
2019-04-06T15:43:01.771Z,15.27
2019-04-06T15:45:31.994Z,17.43
2019-04-06T15:48:08.268Z,12.43
2019-04-06T15:50:45.066Z,14.00
2019-04-06T15:53:17.864Z,13.63
2019-04-06T15:55:50.388Z,13.57
2019-04-06T15:58:32.685Z,14.97
2019-04-06T16:01:05.522Z,17.07
2019-04-06T16:03:37.722Z,13.40
2019-04-06T16:06:19.743Z,14.57
2019-04-06T16:09:06.111Z,16.40
2019-04-06T16:11:40.671Z,13.40
2019-04-06T16:14:22.760Z,12.83
2019-04-06T16:16:55.870Z,14.17
2019-04-06T16:19:25.953Z,12.10
2019-04-06T16:22:04.992Z,16.83
2019-04-06T16:24:41.594Z,13.77
2019-04-06T16:27:11.711Z,15.97
2019-04-06T16:29:47.910Z,12.50
2019-04-06T16:32:34.320Z,12.50
2019-04-06T16:35:20.364Z,11.37
2019-04-06T16:37:50.442Z,12.60
2019-04-06T16:40:36.727Z,12.30
2019-04-06T16:43:06.984Z,11.73
2019-04-06T16:45:38.906Z,13.67
2019-04-06T16:48:15.162Z,12.73
2019-04-06T16:50:47.724Z,16.20
2019-04-06T16:53:20.826Z,13.63
2019-04-06T16:55:50.945Z,14.23
2019-04-06T16:58:36.151Z,10.70
2019-04-06T17:01:16.245Z,10.10
2019-04-06T17:03:49.118Z,12.87
2019-04-06T17:06:34.271Z,12.83
2019-04-06T17:09:19.444Z,10.47
2019-04-06T17:12:06.127Z,14.20
2019-04-06T17:14:36.283Z,11.40
2019-04-06T17:17:06.374Z,11.93
2019-04-06T17:19:39.398Z,11.20
2019-04-06T17:22:28.138Z,12.10
2019-04-06T17:24:58.282Z,16.00
2019-04-06T17:27:28.467Z,16.30
2019-04-06T17:30:07.551Z,16.10
2019-04-06T17:32:53.653Z,10.70
2019-04-06T17:35:26.816Z,11.23
2019-04-06T17:37:59.632Z,11.80
2019-04-06T17:40:29.917Z,12.07
2019-04-06T17:43:00.128Z,10.97
2019-04-06T17:45:44.985Z,13.80
2019-04-06T17:48:33.962Z,10.93
2019-04-06T17:51:10.203Z,11.80
2019-04-06T17:53:58.468Z,13.17
2019-04-06T17:56:35.140Z,11.07
2019-04-06T17:59:22.150Z,13.20
2019-04-06T18:01:56.782Z,10.10
2019-04-06T18:04:35.991Z,10.63
2019-04-06T18:07:06.331Z,9.87
2019-04-06T18:09:42.161Z,9.87
2019-04-06T18:12:12.738Z,12.07
2019-04-06T18:14:41.366Z,11.20
2019-04-06T18:17:10.186Z,10.00
2019-04-06T18:19:38.662Z,12.20
2019-04-06T18:22:07.236Z,10.90
2019-04-06T18:24:36.702Z,11.40
2019-04-06T18:27:05.302Z,11.63
2019-04-06T18:29:34.616Z,12.73
2019-04-06T18:32:07.407Z,12.73
2019-04-06T18:34:35.853Z,9.60
2019-04-06T18:37:21.384Z,11.57
2019-04-06T18:39:51.584Z,11.00
2019-04-06T18:42:20.089Z,11.60
2019-04-06T18:44:48.539Z,41.43
2019-04-06T18:47:16.967Z,69.23
2019-04-06T18:49:45.413Z,29.70
2019-04-06T18:52:14.117Z,28.97
2019-04-06T18:54:42.564Z,17.30
2019-04-06T18:57:11.021Z,17.73
2019-04-06T18:59:39.678Z,12.37
2019-04-06T19:02:08.671Z,14.03
2019-04-06T19:04:37.383Z,10.83
2019-04-06T19:07:06.458Z,10.80
2019-04-06T19:09:35.100Z,10.50
2019-04-06T19:12:04.277Z,11.43
2019-04-06T19:14:34.378Z,14.93
2019-04-06T19:17:03.677Z,10.97
2019-04-06T19:19:32.130Z,12.80
2019-04-06T19:22:00.558Z,10.83
2019-04-06T19:24:29.679Z,15.00
2019-04-06T19:26:58.206Z,13.63
2019-04-06T19:29:26.635Z,13.37
2019-04-06T19:31:57.297Z,12.60
2019-04-06T19:34:25.231Z,10.10
2019-04-06T19:36:53.682Z,12.13
2019-04-06T19:39:22.123Z,10.95
2019-04-06T19:41:51.030Z,9.35
2019-04-06T19:44:19.613Z,12.93
2019-04-06T19:46:48.134Z,13.65
2019-04-06T19:49:16.644Z,9.73
2019-04-06T19:51:45.114Z,11.85
2019-04-06T19:54:13.772Z,11.68
2019-04-06T19:56:42.924Z,22.43
2019-04-06T19:59:13.444Z,8.98
2019-04-06T20:01:42.142Z,11.08
2019-04-06T20:04:11.333Z,10.13
2019-04-06T20:06:39.881Z,14.78
2019-04-06T20:09:08.629Z,13.08
2019-04-06T20:11:37.472Z,9.50
2019-04-06T20:14:06.215Z,9.75
2019-04-06T20:16:35.216Z,13.18
2019-04-06T20:19:04.432Z,12.50
2019-04-06T20:21:33.145Z,15.75
2019-04-06T20:24:01.659Z,15.98
2019-04-06T20:26:31.640Z,22.10
2019-04-06T20:29:01.383Z,17.37
2019-04-06T20:31:30.508Z,12.13
2019-04-06T20:33:59.038Z,15.45
2019-04-06T20:36:27.532Z,13.60
2019-04-06T20:38:56.580Z,13.45
2019-04-06T20:41:25.630Z,15.53
2019-04-06T20:43:54.247Z,15.80
2019-04-06T20:46:24.802Z,13.38
2019-04-06T20:48:53.832Z,20.55
2019-04-06T20:51:22.584Z,14.93
2019-04-06T20:53:51.181Z,19.00
2019-04-06T20:56:19.695Z,21.97
2019-04-06T20:58:48.219Z,24.02
2019-04-06T21:01:16.871Z,15.98
2019-04-06T21:03:45.403Z,18.75
2019-04-06T21:06:14.006Z,16.30
2019-04-06T21:08:42.603Z,19.82
2019-04-06T21:11:11.140Z,15.10
2019-04-06T21:13:40.743Z,15.83
2019-04-06T21:16:09.370Z,14.28
2019-04-06T21:18:37.803Z,15.95
2019-04-06T21:21:06.412Z,16.25
2019-04-06T21:23:34.967Z,19.35
2019-04-06T21:26:03.538Z,18.30
2019-04-06T21:28:32.096Z,17.67
2019-04-06T21:31:00.637Z,15.38
2019-04-06T21:33:29.275Z,15.08
2019-04-06T21:35:58.356Z,17.75
2019-04-06T21:38:28.365Z,21.23
2019-04-06T21:40:57.043Z,15.83
2019-04-06T21:43:25.503Z,17.05
2019-04-06T21:45:54.336Z,18.57
2019-04-06T21:48:23.302Z,16.87
2019-04-06T21:50:51.760Z,15.30
2019-04-06T21:53:20.342Z,14.78
2019-04-06T21:56:00.544Z,16.87
2019-04-06T21:58:20.794Z,16.73
2019-04-06T22:00:52.485Z,19.45
2019-04-06T22:03:23.351Z,13.65
2019-04-06T22:05:52.038Z,13.95
2019-04-06T22:08:20.500Z,14.38
2019-04-06T22:10:49.129Z,14.07
2019-04-06T22:13:18.365Z,13.88
2019-04-06T22:15:47.311Z,16.48
2019-04-06T22:18:15.913Z,17.70
2019-04-06T22:20:44.339Z,12.70
2019-04-06T22:23:13.109Z,15.28
2019-04-06T22:25:41.712Z,20.37
2019-04-06T22:28:10.885Z,15.53
2019-04-06T22:30:40.482Z,17.48
2019-04-06T22:33:09.293Z,16.52
2019-04-06T22:35:38.391Z,16.42
2019-04-06T22:38:08.018Z,20.10
2019-04-06T22:40:37.051Z,14.75
2019-04-06T22:43:05.723Z,14.70
2019-04-06T22:45:34.912Z,13.85
2019-04-06T22:48:03.545Z,16.25
2019-04-06T22:50:32.677Z,14.95
2019-04-06T22:53:01.178Z,13.20
2019-04-06T22:55:29.808Z,16.02
2019-04-06T22:57:58.398Z,12.95
2019-04-06T23:00:37.507Z,14.55
2019-04-06T23:03:22.790Z,13.62
2019-04-06T23:05:55.425Z,24.98
2019-04-06T23:08:23.889Z,15.53
2019-04-06T23:10:53.963Z,18.73
2019-04-06T23:13:22.459Z,14.85
2019-04-06T23:15:50.963Z,13.18
2019-04-06T23:18:19.726Z,12.82
2019-04-06T23:20:48.393Z,15.05
2019-04-06T23:23:16.807Z,15.08
2019-04-06T23:25:45.313Z,16.15
2019-04-06T23:28:14.375Z,19.90
2019-04-06T23:30:44.504Z,22.07
2019-04-06T23:33:13.039Z,18.67
2019-04-06T23:35:42.283Z,17.42
2019-04-06T23:38:11.229Z,16.60
2019-04-06T23:40:39.862Z,20.25
2019-04-06T23:43:08.448Z,15.50
2019-04-06T23:45:37.018Z,14.90
2019-04-06T23:48:05.974Z,18.90
2019-04-06T23:50:34.633Z,16.57
2019-04-06T23:53:03.172Z,16.48
2019-04-06T23:55:33.132Z,14.43
2019-04-06T23:58:01.663Z,17.87
